Time;durP1;ratioP1;P1;durP2;ratioP2;P2;SDS_P1;SDS_P2;PMS_P1;PMS_P2;Temp;Humidity;BMP_temperature;BMP_pressure;BME280_temperature;BME280_humidity;BME280_pressure;Samples;Min_cycle;Max_cycle;Signal;HPM_P1;HPM_P2
2022/04/13 03:02:41;;;;;;;7.27;6.57;;;9.10;99.90;;;;;;4932233;29;20301;-80
2022/04/13 03:05:08;;;;;;;6.63;6.23;;;9.10;99.90;;;;;;4932219;29;20192;-79
2022/04/13 03:07:33;;;;;;;6.70;6.37;;;9.00;99.90;;;;;;4933232;29;20183;-81
2022/04/13 03:10:00;;;;;;;7.07;6.57;;;9.00;99.90;;;;;;4917646;29;20183;-82
2022/04/13 03:12:26;;;;;;;7.97;7.37;;;9.00;99.90;;;;;;4917981;29;20576;-83
2022/04/13 03:14:52;;;;;;;6.90;6.50;;;9.00;99.90;;;;;;4949619;23;20765;-77
2022/04/13 03:17:18;;;;;;;6.93;6.43;;;9.00;99.90;;;;;;4930724;29;20195;-76
2022/04/13 03:19:44;;;;;;;7.43;7.03;;;9.00;99.90;;;;;;4914956;29;20278;-77
2022/04/13 03:22:09;;;;;;;6.53;5.97;;;8.90;99.90;;;;;;4915029;29;20194;-77
2022/04/13 03:24:35;;;;;;;6.30;5.80;;;8.80;99.90;;;;;;4918921;29;20670;-77
2022/04/13 03:27:01;;;;;;;6.37;5.87;;;8.80;99.90;;;;;;4919198;29;20198;-77
2022/04/13 03:29:27;;;;;;;7.53;6.63;;;8.70;99.90;;;;;;4920591;29;20643;-77
2022/04/13 03:31:53;;;;;;;7.80;7.30;;;8.60;99.90;;;;;;4914744;29;20591;-77
2022/04/13 03:34:21;;;;;;;8.40;7.83;;;8.60;99.90;;;;;;4915110;29;20694;-77
2022/04/13 03:36:48;;;;;;;8.40;7.60;;;8.50;99.90;;;;;;4914512;29;20183;-76
2022/04/13 03:39:14;;;;;;;11.43;10.57;;;8.50;99.90;;;;;;4915080;29;20178;-77
2022/04/13 03:41:40;;;;;;;14.27;13.53;;;8.40;99.90;;;;;;4913804;29;20564;-77
2022/04/13 03:44:06;;;;;;;30.50;28.77;;;8.30;99.90;;;;;;4915008;29;20217;-76
2022/04/13 03:46:32;;;;;;;42.30;39.70;;;8.30;99.90;;;;;;4914898;29;20675;-76
2022/04/13 03:48:58;;;;;;;50.43;47.63;;;8.20;99.90;;;;;;4913637;29;20191;-76
2022/04/13 03:51:24;;;;;;;47.57;44.97;;;8.20;99.90;;;;;;4913594;29;20270;-76
2022/04/13 03:53:50;;;;;;;41.77;39.67;;;8.10;99.90;;;;;;4913665;29;20207;-76
2022/04/13 03:56:16;;;;;;;50.47;47.73;;;8.10;99.90;;;;;;4913916;29;20189;-75
2022/04/13 03:58:43;;;;;;;40.37;37.63;;;8.00;99.90;;;;;;4910952;29;20547;-76
2022/04/13 04:01:10;;;;;;;60.90;57.67;;;8.00;99.90;;;;;;4914690;29;20198;-76
2022/04/13 04:03:37;;;;;;;66.67;63.03;;;8.00;99.90;;;;;;4915004;29;20205;-75
2022/04/13 04:06:04;;;;;;;41.23;39.13;;;7.90;99.90;;;;;;4896003;29;20561;-75
2022/04/13 04:08:32;;;;;;;22.13;20.67;;;7.90;99.90;;;;;;4894198;29;20220;-76
2022/04/13 04:10:58;;;;;;;18.20;16.90;;;7.80;99.90;;;;;;4895870;29;20275;-76
2022/04/13 04:13:24;;;;;;;19.70;18.63;;;7.90;99.90;;;;;;4898700;29;20662;-75
2022/04/13 04:15:50;;;;;;;37.47;34.97;;;7.80;99.90;;;;;;4898787;29;20267;-76
2022/04/13 04:18:16;;;;;;;33.07;31.27;;;7.80;99.90;;;;;;4917672;29;20318;-76
2022/04/13 04:20:42;;;;;;;45.23;42.87;;;7.80;99.90;;;;;;4918469;29;20274;-75
2022/04/13 04:23:08;;;;;;;38.93;36.87;;;7.80;99.90;;;;;;4918286;29;20227;-76
2022/04/13 04:25:34;;;;;;;36.03;34.00;;;7.70;99.90;;;;;;4919183;29;20210;-75
2022/04/13 04:28:00;;;;;;;31.50;29.90;;;7.60;99.90;;;;;;4920315;29;20651;-75
2022/04/13 04:30:26;;;;;;;23.70;22.07;;;7.50;99.90;;;;;;4919148;29;20203;-77
2022/04/13 04:32:52;;;;;;;18.03;17.03;;;7.60;99.90;;;;;;4920330;29;20588;-76
2022/04/13 04:35:18;;;;;;;20.40;19.13;;;7.60;99.90;;;;;;4917290;29;20207;-76
2022/04/13 04:37:43;;;;;;;18.20;16.67;;;7.50;99.90;;;;;;4917841;29;20619;-73
2022/04/13 04:40:10;;;;;;;21.00;19.50;;;7.50;99.90;;;;;;4916811;29;20266;-73
2022/04/13 04:42:46;;;;;;;28.13;26.17;;;7.50;99.90;;;;;;4917385;29;20202;-72
2022/04/13 04:45:19;;;;;;;19.77;18.13;;;7.40;99.90;;;;;;4916793;29;20210;-73
2022/04/13 04:47:45;;;;;;;13.50;12.47;;;7.40;99.90;;;;;;4916782;29;20183;-73
2022/04/13 04:50:11;;;;;;;13.37;12.17;;;7.50;99.90;;;;;;4917514;29;20742;-72
2022/04/13 04:52:41;;;;;;;14.10;13.00;;;7.50;99.90;;;;;;4913430;29;20184;-73
2022/04/13 04:55:12;;;;;;;13.00;11.97;;;7.50;99.90;;;;;;4897244;29;20731;-72
2022/04/13 04:57:39;;;;;;;14.47;13.17;;;7.50;99.90;;;;;;4898537;29;20216;-72
2022/04/13 05:00:07;;;;;;;15.37;14.07;;;7.50;99.90;;;;;;4897851;29;20183;-73
2022/04/13 05:02:33;;;;;;;20.80;18.70;;;7.60;99.90;;;;;;4898729;29;20188;-73
2022/04/13 05:04:59;;;;;;;29.30;21.93;;;7.60;99.90;;;;;;4898817;29;20691;-74
2022/04/13 05:07:25;;;;;;;21.83;19.53;;;7.70;99.90;;;;;;4898015;29;20195;-73
2022/04/13 05:09:51;;;;;;;16.50;15.30;;;7.70;99.90;;;;;;4898642;29;20183;-73
2022/04/13 05:12:16;;;;;;;18.20;16.70;;;7.70;99.90;;;;;;4897557;29;20211;-73
2022/04/13 05:14:42;;;;;;;22.37;20.10;;;7.80;99.90;;;;;;4896760;29;20243;-74
2022/04/13 05:17:08;;;;;;;19.67;17.73;;;7.90;99.90;;;;;;4897552;29;20180;-73
2022/04/13 05:19:34;;;;;;;25.23;23.30;;;8.00;99.90;;;;;;4897481;29;20192;-73
2022/04/13 05:22:00;;;;;;;28.83;26.90;;;8.20;99.90;;;;;;4898509;29;20201;-73
2022/04/13 05:24:25;;;;;;;39.47;36.57;;;8.30;99.90;;;;;;4897616;29;20208;-73
2022/04/13 05:26:51;;;;;;;10.47;8.93;;;8.50;99.90;;;;;;4896738;29;20194;-73
2022/04/13 05:29:17;;;;;;;9.33;8.10;;;8.70;99.90;;;;;;4899784;29;20251;-73
2022/04/13 05:31:43;;;;;;;12.33;9.23;;;8.90;99.90;;;;;;4898024;29;20247;-73
2022/04/13 05:34:09;;;;;;;8.70;7.90;;;9.10;99.90;;;;;;4898280;29;20223;-73
2022/04/13 05:36:35;;;;;;;11.63;9.53;;;9.20;99.90;;;;;;4896691;29;20613;-73
2022/04/13 05:39:01;;;;;;;11.33;10.13;;;9.30;99.90;;;;;;4896628;29;20187;-73
2022/04/13 05:41:27;;;;;;;22.20;20.77;;;9.50;99.90;;;;;;4881358;29;20199;-73
2022/04/13 05:43:53;;;;;;;22.60;21.07;;;9.70;99.90;;;;;;4897900;29;20208;-73
2022/04/13 05:46:18;;;;;;;12.80;10.37;;;10.00;99.90;;;;;;4896954;29;20194;-73
2022/04/13 05:48:44;;;;;;;8.63;7.93;;;10.20;99.90;;;;;;4898895;29;20207;-73
2022/04/13 05:51:10;;;;;;;9.90;9.00;;;10.50;99.90;;;;;;4902254;29;20235;-73
2022/04/13 05:53:36;;;;;;;14.00;13.03;;;10.70;99.90;;;;;;4911094;29;20227;-73
2022/04/13 05:56:03;;;;;;;12.57;11.40;;;11.00;99.90;;;;;;4916935;29;20246;-73
2022/04/13 05:58:29;;;;;;;8.63;7.83;;;11.30;99.90;;;;;;4917452;29;20183;-73
2022/04/13 06:00:55;;;;;;;11.13;9.03;;;11.60;99.90;;;;;;4919955;29;20205;-73
2022/04/13 06:03:23;;;;;;;13.50;9.70;;;11.80;99.90;;;;;;4915869;29;20625;-73
2022/04/13 06:05:50;;;;;;;8.53;7.70;;;12.10;99.90;;;;;;4915124;29;20189;-73
2022/04/13 06:08:16;;;;;;;7.97;7.17;;;12.50;99.90;;;;;;4914974;29;20658;-73
2022/04/13 06:10:41;;;;;;;14.10;9.63;;;12.70;99.90;;;;;;4916190;29;20246;-73
2022/04/13 06:13:07;;;;;;;9.97;9.03;;;13.00;99.90;;;;;;4915393;29;20274;-73
2022/04/13 06:15:33;;;;;;;12.70;7.60;;;13.20;99.90;;;;;;4914964;29;20214;-73
2022/04/13 06:17:59;;;;;;;12.83;11.80;;;13.50;99.90;;;;;;4914554;29;20187;-75
2022/04/13 06:20:26;;;;;;;21.63;20.40;;;13.90;99.90;;;;;;4915848;29;20262;-73
2022/04/13 06:22:54;;;;;;;17.10;16.03;;;14.20;99.90;;;;;;4916229;29;20183;-74
2022/04/13 06:25:20;;;;;;;13.27;11.43;;;14.40;99.90;;;;;;4916410;29;20214;-73
2022/04/13 06:27:46;;;;;;;6.33;5.80;;;14.80;99.90;;;;;;4914178;29;20258;-73
2022/04/13 06:30:13;;;;;;;6.43;5.93;;;15.00;99.90;;;;;;4915873;29;20195;-73
2022/04/13 06:32:41;;;;;;;8.67;7.97;;;15.30;99.90;;;;;;4915638;29;20247;-73
2022/04/13 06:35:09;;;;;;;10.83;10.00;;;15.50;99.90;;;;;;4915310;29;20290;-73
2022/04/13 06:37:36;;;;;;;10.77;9.80;;;15.60;99.90;;;;;;4915093;29;20189;-73
2022/04/13 06:40:02;;;;;;;10.80;10.10;;;15.60;99.90;;;;;;4915974;29;20226;-73
2022/04/13 06:42:32;;;;;;;11.47;10.77;;;15.40;99.90;;;;;;4916536;29;20186;-73
2022/04/13 06:44:59;;;;;;;10.30;9.43;;;15.60;99.90;;;;;;4915735;29;20586;-73
2022/04/13 06:47:26;;;;;;;6.23;5.83;;;16.10;99.90;;;;;;4914172;29;20175;-73
2022/04/13 06:49:52;;;;;;;6.63;5.43;;;16.60;99.90;;;;;;4914557;29;20671;-73
2022/04/13 06:52:18;;;;;;;9.53;8.80;;;16.80;99.90;;;;;;4915020;29;20214;-73
2022/04/13 06:54:44;;;;;;;12.37;10.90;;;16.90;99.90;;;;;;4897821;29;20207;-73
2022/04/13 06:57:10;;;;;;;11.87;10.97;;;17.20;99.90;;;;;;4895446;29;20186;-73
2022/04/13 06:59:36;;;;;;;12.60;11.57;;;17.40;99.90;;;;;;4895192;29;20328;-73
2022/04/13 07:02:02;;;;;;;12.27;11.47;;;17.40;99.90;;;;;;4896544;29;20278;-73
2022/04/13 07:04:28;;;;;;;10.33;9.33;;;17.60;99.90;;;;;;4895023;29;20218;-73
2022/04/13 07:06:54;;;;;;;9.53;8.90;;;17.90;99.90;;;;;;4897391;29;20180;-73
2022/04/13 07:09:19;;;;;;;10.10;8.50;;;18.00;99.90;;;;;;4902218;29;20276;-72
2022/04/13 07:11:45;;;;;;;11.17;10.10;;;17.50;99.90;;;;;;4896653;29;20220;-73
2022/04/13 07:14:11;;;;;;;8.80;8.10;;;17.70;99.90;;;;;;4896543;29;20219;-72
2022/04/13 07:16:37;;;;;;;8.57;8.03;;;17.80;99.90;;;;;;4895170;29;20270;-73
2022/04/13 07:19:03;;;;;;;8.70;7.37;;;17.80;99.90;;;;;;4898072;29;20277;-72
2022/04/13 07:21:28;;;;;;;9.23;8.40;;;17.60;99.90;;;;;;4901035;29;20180;-72
2022/04/13 07:23:56;;;;;;;8.00;7.40;;;17.70;99.90;;;;;;4900784;29;20215;-72
2022/04/13 07:26:21;;;;;;;8.00;7.20;;;18.00;99.90;;;;;;4918166;29;20218;-73
2022/04/13 07:28:47;;;;;;;7.40;6.63;;;18.30;99.90;;;;;;4917925;29;20187;-75
2022/04/13 07:31:13;;;;;;;8.40;7.80;;;18.10;98.90;;;;;;4917913;29;20324;-73
2022/04/13 07:33:39;;;;;;;8.23;7.63;;;18.10;98.90;;;;;;4915982;29;20572;-73
2022/04/13 07:36:04;;;;;;;7.90;7.30;;;18.40;98.40;;;;;;4915164;29;20283;-72
2022/04/13 07:38:30;;;;;;;9.07;7.60;;;18.70;97.20;;;;;;4914702;29;20195;-73
2022/04/13 07:40:58;;;;;;;9.93;9.03;;;18.80;96.90;;;;;;4915173;29;20273;-73
2022/04/13 07:43:24;;;;;;;7.33;6.73;;;18.60;97.00;;;;;;4915021;29;20186;-73
2022/04/13 07:45:50;;;;;;;7.17;6.57;;;18.90;97.40;;;;;;4914326;29;20231;-74
2022/04/13 07:48:16;;;;;;;7.70;6.87;;;19.50;96.90;;;;;;4914582;29;20210;-74
2022/04/13 07:50:42;;;;;;;8.00;7.27;;;19.90;95.30;;;;;;4913916;29;20213;-74
2022/04/13 07:53:07;;;;;;;9.27;8.40;;;20.40;95.10;;;;;;4915195;29;20734;-75
2022/04/13 07:55:33;;;;;;;9.33;8.40;;;20.80;93.20;;;;;;4915128;29;20338;-75
2022/04/13 07:57:59;;;;;;;8.63;7.93;;;20.70;91.80;;;;;;4914318;29;20238;-74
2022/04/13 08:00:25;;;;;;;8.43;7.70;;;20.60;92.00;;;;;;4913762;29;20204;-74
2022/04/13 08:02:51;;;;;;;8.77;7.83;;;20.30;91.70;;;;;;4913891;29;20194;-73
2022/04/13 08:05:16;;;;;;;8.15;7.35;;;20.60;90.50;;;;;;4914996;29;20290;-73
2022/04/13 08:07:42;;;;;;;10.23;9.27;;;20.80;90.30;;;;;;4913338;29;20195;-74
2022/04/13 08:10:09;;;;;;;14.50;13.40;;;21.20;89.40;;;;;;4914846;29;20274;-74
2022/04/13 08:12:35;;;;;;;12.52;11.38;;;21.40;85.90;;;;;;4913743;29;20198;-73
2022/04/13 08:15:03;;;;;;;13.70;12.80;;;21.30;80.10;;;;;;4916785;29;20297;-73
2022/04/13 08:17:29;;;;;;;16.25;15.15;;;21.10;80.30;;;;;;4921379;29;20235;-73
2022/04/13 08:19:55;;;;;;;16.15;15.13;;;21.10;80.20;;;;;;4915925;29;20605;-75
2022/04/13 08:22:25;;;;;;;14.02;12.82;;;21.30;81.30;;;;;;4916417;29;20628;-72
2022/04/13 08:24:51;;;;;;;11.95;11.05;;;21.60;78.50;;;;;;4921469;29;20273;-74
2022/04/13 08:27:18;;;;;;;15.30;14.05;;;21.80;79.30;;;;;;4925243;29;20560;-72
2022/04/13 08:29:46;;;;;;;8.80;8.23;;;22.30;80.20;;;;;;4909601;29;20191;-72
2022/04/13 08:32:15;;;;;;;9.45;8.65;;;22.80;73.80;;;;;;4913354;29;20394;-72
2022/04/13 08:34:40;;;;;;;8.95;7.57;;;22.60;75.70;;;;;;4914254;29;20210;-74
2022/04/13 08:37:07;;;;;;;5.68;5.18;;;23.00;72.90;;;;;;4912947;29;20186;-72
2022/04/13 08:39:33;;;;;;;7.13;6.53;;;23.30;70.40;;;;;;4913660;29;20278;-74
2022/04/13 08:42:07;;;;;;;8.25;5.53;;;23.30;67.70;;;;;;4913230;29;20223;-74
2022/04/13 08:44:45;;;;;;;6.38;5.88;;;23.30;67.90;;;;;;4914183;29;20772;-73
2022/04/13 08:47:13;;;;;;;7.68;6.30;;;23.30;68.20;;;;;;4904255;29;20665;-73
2022/04/13 08:49:44;;;;;;;6.18;5.32;;;23.30;68.00;;;;;;4894126;29;20180;-73
2022/04/13 08:52:13;;;;;;;9.43;5.78;;;23.30;68.70;;;;;;4893914;29;20226;-73
2022/04/13 08:54:47;;;;;;;6.25;5.32;;;23.50;69.30;;;;;;4895322;29;20204;-73
2022/04/13 08:57:17;;;;;;;6.80;6.20;;;23.90;67.70;;;;;;4895229;29;20210;-73
2022/04/13 09:00:14;;;;;;;6.45;5.72;;;24.00;66.50;;;;;;4897148;29;20274;-74
2022/04/13 09:02:49;;;;;;;7.30;6.70;;;24.30;65.40;;;;;;4898738;29;20203;-74
2022/04/13 09:05:19;;;;;;;6.05;5.50;;;24.50;61.30;;;;;;4897129;29;20274;-74
2022/04/13 09:08:05;;;;;;;6.70;6.05;;;24.40;63.30;;;;;;4896964;29;20741;-73
2022/04/13 09:10:32;;;;;;;8.27;6.40;;;24.50;63.30;;;;;;4897944;29;20219;-71
2022/04/13 09:12:59;;;;;;;6.85;5.82;;;24.90;62.20;;;;;;4900657;29;20258;-72
2022/04/13 09:15:26;;;;;;;5.93;5.38;;;25.20;62.00;;;;;;4949592;23;20230;-76
2022/04/13 09:17:51;;;;;;;10.73;6.30;;;25.30;60.50;;;;;;4935292;29;20182;-76
2022/04/13 09:20:17;;;;;;;6.75;6.05;;;25.50;61.40;;;;;;4935995;29;20660;-75
2022/04/13 09:22:44;;;;;;;6.82;6.22;;;25.60;61.50;;;;;;4936193;29;20190;-76
2022/04/13 09:25:10;;;;;;;7.03;6.28;;;25.20;61.20;;;;;;4935550;29;20295;-75
2022/04/13 09:27:37;;;;;;;6.50;5.78;;;25.00;60.90;;;;;;4935072;29;20178;-75
2022/04/13 09:30:06;;;;;;;6.53;5.90;;;25.00;61.50;;;;;;4935547;29;20186;-76
2022/04/13 09:32:32;;;;;;;7.38;6.28;;;24.90;62.10;;;;;;4936815;29;20588;-76
2022/04/13 09:34:59;;;;;;;6.18;5.57;;;25.00;58.70;;;;;;4936369;29;20218;-75
2022/04/13 09:37:26;;;;;;;8.88;5.57;;;25.30;58.60;;;;;;4935977;29;20193;-75
2022/04/13 09:39:52;;;;;;;5.88;5.38;;;25.60;61.50;;;;;;4924895;29;20196;-76
2022/04/13 09:42:19;;;;;;;5.13;4.63;;;26.20;61.10;;;;;;4904537;29;20235;-75
2022/04/13 09:44:56;;;;;;;8.55;7.47;;;26.30;56.80;;;;;;4915624;29;20623;-75
2022/04/13 09:47:28;;;;;;;7.68;6.35;;;26.40;54.60;;;;;;4916485;29;20186;-74
2022/04/13 09:49:55;;;;;;;6.18;5.40;;;26.20;55.00;;;;;;4915446;29;20211;-75
2022/04/13 09:52:33;;;;;;;5.78;5.38;;;26.80;53.40;;;;;;4916790;29;20241;-76
2022/04/13 09:54:59;;;;;;;7.68;5.75;;;27.00;54.30;;;;;;4916293;29;20239;-75
2022/04/13 09:57:26;;;;;;;5.28;4.80;;;27.30;53.00;;;;;;4915343;29;20190;-76
2022/04/13 10:00:00;;;;;;;6.05;5.55;;;27.40;54.90;;;;;;4915416;29;20193;-76
2022/04/13 10:02:42;;;;;;;4.68;4.38;;;27.70;56.10;;;;;;4916374;29;20190;-76
2022/04/13 10:05:29;;;;;;;5.80;4.95;;;27.60;53.90;;;;;;4915177;29;20618;-76
2022/04/13 10:08:08;;;;;;;5.80;5.22;;;27.60;55.30;;;;;;4916001;29;20191;-76
2022/04/13 10:10:34;;;;;;;5.72;5.07;;;27.60;52.70;;;;;;4914369;29;20313;-76
2022/04/13 10:13:06;;;;;;;5.47;4.90;;;27.40;55.40;;;;;;4916907;29;20555;-76
2022/04/13 10:15:32;;;;;;;4.93;4.50;;;27.20;55.80;;;;;;4934130;29;20214;-74
2022/04/13 10:18:05;;;;;;;6.25;4.63;;;26.90;55.50;;;;;;4919608;29;20183;-75
2022/04/13 10:20:47;;;;;;;5.43;5.13;;;26.90;54.90;;;;;;4917158;29;20247;-75
2022/04/13 10:23:14;;;;;;;5.03;4.63;;;26.90;55.90;;;;;;4916205;29;20187;-75
2022/04/13 10:25:41;;;;;;;5.43;4.97;;;26.90;56.20;;;;;;4915823;29;20206;-69
2022/04/13 10:28:12;;;;;;;5.30;4.90;;;26.90;56.30;;;;;;4915577;29;20562;-69
2022/04/13 10:30:40;;;;;;;4.63;4.05;;;27.40;55.10;;;;;;4915900;29;20705;-70
2022/04/13 10:33:10;;;;;;;9.40;4.85;;;27.70;53.80;;;;;;4915865;29;20186;-67
2022/04/13 10:35:37;;;;;;;4.63;4.22;;;28.00;54.90;;;;;;4915692;29;20290;-69
2022/04/13 10:38:03;;;;;;;5.35;4.90;;;28.30;54.10;;;;;;4915772;29;20179;-69
2022/04/13 10:40:32;;;;;;;4.32;3.92;;;28.40;55.60;;;;;;4915439;29;20194;-71
2022/04/13 10:43:01;;;;;;;6.55;4.75;;;28.50;54.60;;;;;;4915783;29;20191;-68
2022/04/13 10:45:28;;;;;;;6.65;6.15;;;28.50;52.90;;;;;;4914399;29;20207;-68
2022/04/13 10:48:05;;;;;;;9.82;5.90;;;28.30;53.80;;;;;;4915306;29;20618;-68
2022/04/13 10:50:45;;;;;;;5.95;5.65;;;28.70;54.30;;;;;;4915212;29;20219;-69
2022/04/13 10:53:14;;;;;;;5.55;5.07;;;29.40;52.50;;;;;;4914322;29;20619;-69
2022/04/13 10:55:41;;;;;;;9.57;8.77;;;30.00;51.50;;;;;;4915069;29;20203;-68
2022/04/13 10:58:17;;;;;;;12.65;11.95;;;29.70;51.70;;;;;;4913954;29;20194;-68
2022/04/13 11:00:46;;;;;;;12.45;11.60;;;29.70;50.70;;;;;;4914059;29;20537;-68
2022/04/13 11:03:12;;;;;;;17.17;16.15;;;29.90;51.60;;;;;;4915195;29;20183;-70
2022/04/13 11:05:40;;;;;;;23.48;22.08;;;30.50;50.10;;;;;;4915141;29;20243;-68
2022/04/13 11:08:38;;;;;;;11.40;10.75;;;30.80;49.30;;;;;;4914972;29;20219;-69
2022/04/13 11:11:05;;;;;;;8.55;7.75;;;30.90;47.70;;;;;;4913621;29;20665;-69
2022/04/13 11:13:32;;;;;;;6.18;5.68;;;31.30;47.00;;;;;;4915155;29;20191;-68
2022/04/13 11:16:15;;;;;;;7.40;5.95;;;31.60;47.10;;;;;;4915042;29;20186;-69
2022/04/13 11:18:41;;;;;;;4.40;4.03;;;31.40;45.20;;;;;;4914989;29;20650;-68
2022/04/13 11:21:09;;;;;;;4.63;4.10;;;31.60;46.00;;;;;;4913183;29;20237;-68
2022/04/13 11:23:48;;;;;;;5.75;5.22;;;31.70;44.40;;;;;;4914922;29;20198;-70
2022/04/13 11:26:15;;;;;;;3.58;3.38;;;31.40;46.70;;;;;;4914786;29;20197;-70
2022/04/13 11:28:41;;;;;;;5.43;3.80;;;31.60;44.10;;;;;;4914678;29;20198;-69
2022/04/13 11:31:09;;;;;;;4.40;4.00;;;31.70;44.10;;;;;;4914873;29;20211;-68
2022/04/13 11:33:42;;;;;;;5.32;3.78;;;32.40;44.00;;;;;;4914816;29;20190;-69
2022/04/13 11:36:08;;;;;;;3.33;3.13;;;32.30;45.00;;;;;;4915133;29;20183;-69
2022/04/13 11:38:36;;;;;;;9.82;4.45;;;32.20;44.50;;;;;;4915090;29;20600;-68
2022/04/13 11:41:07;;;;;;;4.65;3.83;;;32.60;44.10;;;;;;4915047;29;20187;-70
2022/04/13 11:43:34;;;;;;;4.10;3.70;;;32.90;44.60;;;;;;4914612;29;20681;-69
2022/04/13 11:46:00;;;;;;;5.47;4.40;;;32.70;42.40;;;;;;4914854;29;20214;-68
2022/04/13 11:48:34;;;;;;;5.30;4.68;;;33.00;43.00;;;;;;4914213;29;20270;-68
2022/04/13 11:51:30;;;;;;;5.18;4.63;;;32.90;41.80;;;;;;4915258;29;20210;-68
2022/04/13 11:54:06;;;;;;;5.55;4.72;;;33.20;42.70;;;;;;4914933;29;20698;-67
2022/04/13 11:56:51;;;;;;;9.73;4.35;;;32.90;43.40;;;;;;4928431;29;20179;-69
2022/04/13 11:59:37;;;;;;;5.43;4.90;;;32.70;44.80;;;;;;4917259;29;20202;-69
2022/04/13 12:02:07;;;;;;;6.03;5.45;;;32.60;43.50;;;;;;4914324;29;20222;-69
2022/04/13 12:04:34;;;;;;;5.82;5.28;;;32.60;44.10;;;;;;4914633;29;20290;-69
2022/04/13 12:07:01;;;;;;;5.65;4.28;;;32.10;44.40;;;;;;4914471;29;20599;-70
2022/04/13 12:09:28;;;;;;;9.20;6.30;;;31.70;46.00;;;;;;4914948;29;20566;-70
2022/04/13 12:11:55;;;;;;;7.90;6.28;;;31.10;47.90;;;;;;4923448;29;20230;-69
2022/04/13 12:14:38;;;;;;;6.45;5.45;;;30.90;48.10;;;;;;4907218;29;20250;-69
2022/04/13 12:17:04;;;;;;;9.25;6.80;;;30.40;48.30;;;;;;4911831;29;20651;-70
2022/04/13 12:19:42;;;;;;;6.57;5.88;;;30.20;49.90;;;;;;4914331;29;20211;-68
2022/04/13 12:22:19;;;;;;;6.70;6.03;;;30.20;49.10;;;;;;4914738;29;20338;-69
2022/04/13 12:25:06;;;;;;;4.82;4.45;;;30.50;47.40;;;;;;4914651;29;20207;-69
2022/04/13 12:27:32;;;;;;;4.63;4.18;;;30.90;47.00;;;;;;4914308;29;20186;-69
2022/04/13 12:30:17;;;;;;;5.95;5.28;;;31.20;47.00;;;;;;4914613;29;20202;-69
2022/04/13 12:32:47;;;;;;;10.77;6.68;;;30.80;47.10;;;;;;4915354;29;20191;-69
2022/04/13 12:35:15;;;;;;;7.75;5.03;;;30.60;47.60;;;;;;4916757;29;20214;-68
2022/04/13 12:37:50;;;;;;;6.30;3.97;;;30.80;47.70;;;;;;4917513;29;20179;-69
2022/04/13 12:40:23;;;;;;;11.88;5.20;;;31.40;45.90;;;;;;4918073;29;20186;-69
2022/04/13 12:42:49;;;;;;;8.18;4.68;;;30.70;46.80;;;;;;4918189;29;20194;-68
2022/04/13 12:45:15;;;;;;;5.03;4.60;;;30.90;47.20;;;;;;4918005;29;20270;-68
2022/04/13 12:47:48;;;;;;;4.47;3.95;;;30.70;47.10;;;;;;4917636;29;20202;-69
2022/04/13 12:50:15;;;;;;;4.93;4.47;;;30.40;46.80;;;;;;4917544;29;20270;-68
2022/04/13 12:52:44;;;;;;;5.05;4.57;;;30.60;48.10;;;;;;4917646;29;20227;-69
2022/04/13 12:55:10;;;;;;;5.80;4.00;;;31.20;45.80;;;;;;4917775;29;20270;-69
2022/04/13 12:57:36;;;;;;;4.75;3.90;;;31.80;43.90;;;;;;4917425;29;20187;-68
2022/04/13 13:00:05;;;;;;;6.32;5.93;;;32.20;45.50;;;;;;4917374;29;20686;-69
2022/04/13 13:02:31;;;;;;;7.28;5.50;;;32.80;43.40;;;;;;4916530;29;20286;-70
2022/04/13 13:05:04;;;;;;;6.15;5.47;;;32.40;43.00;;;;;;4917424;29;20367;-70
2022/04/13 13:07:30;;;;;;;5.88;4.53;;;32.00;43.90;;;;;;4917348;29;20195;-69
2022/04/13 13:09:56;;;;;;;6.70;5.55;;;32.20;43.90;;;;;;4917632;29;20190;-69
2022/04/13 13:12:22;;;;;;;7.85;6.35;;;31.90;44.60;;;;;;4917681;29;20222;-69
2022/04/13 13:14:52;;;;;;;5.95;5.38;;;32.00;44.70;;;;;;4917368;29;20225;-69
2022/04/13 13:17:22;;;;;;;6.07;5.40;;;32.00;44.20;;;;;;4916967;29;20239;-68
2022/04/13 13:19:49;;;;;;;5.90;5.43;;;32.10;44.10;;;;;;4916539;29;20190;-69
2022/04/13 13:22:23;;;;;;;5.88;5.18;;;32.40;44.40;;;;;;4917812;29;20183;-70
2022/04/13 13:24:56;;;;;;;4.45;4.25;;;32.90;43.10;;;;;;4911153;29;20206;-70
2022/04/13 13:27:32;;;;;;;5.82;5.22;;;33.10;42.10;;;;;;4916453;29;20207;-69
2022/04/13 13:30:04;;;;;;;6.03;4.78;;;33.00;42.80;;;;;;4916911;29;20742;-69
2022/04/13 13:32:36;;;;;;;8.90;5.95;;;32.90;40.30;;;;;;4917043;29;20766;-69
2022/04/13 13:35:05;;;;;;;7.43;4.78;;;32.70;42.80;;;;;;4928143;29;20190;-69
2022/04/13 13:37:47;;;;;;;8.45;5.93;;;32.80;42.10;;;;;;4923223;29;20209;-69
2022/04/13 13:40:40;;;;;;;5.45;4.97;;;32.60;41.60;;;;;;4917057;29;20660;-69
2022/04/13 13:43:11;;;;;;;6.28;4.72;;;33.20;41.90;;;;;;4917210;29;20183;-69
2022/04/13 13:45:44;;;;;;;6.10;5.35;;;32.90;41.30;;;;;;4916343;29;20238;-68
2022/04/13 13:48:14;;;;;;;6.95;5.65;;;32.70;41.00;;;;;;4916446;29;20217;-68
2022/04/13 13:50:42;;;;;;;9.85;5.43;;;33.10;41.20;;;;;;4915517;29;20211;-70
2022/04/13 13:53:10;;;;;;;5.05;4.57;;;32.90;40.70;;;;;;4905281;29;20188;-69
2022/04/13 13:55:41;;;;;;;7.07;4.80;;;33.30;40.40;;;;;;4915533;29;20214;-69
2022/04/13 13:58:07;;;;;;;5.18;4.68;;;32.80;41.50;;;;;;4915948;29;20214;-68
2022/04/13 14:00:36;;;;;;;7.35;6.32;;;32.60;42.50;;;;;;4916782;29;20191;-68
2022/04/13 14:03:07;;;;;;;6.22;5.50;;;32.40;42.20;;;;;;4916540;29;20554;-69
2022/04/13 14:05:34;;;;;;;6.28;4.70;;;32.00;43.10;;;;;;4916300;29;20207;-69
2022/04/13 14:08:04;;;;;;;6.95;5.38;;;32.40;42.80;;;;;;4916036;29;20644;-69
2022/04/13 14:10:30;;;;;;;7.50;5.60;;;32.30;43.20;;;;;;4916162;29;20226;-69
2022/04/13 14:12:56;;;;;;;6.72;5.50;;;32.40;41.40;;;;;;4916191;29;20179;-68
2022/04/13 14:15:22;;;;;;;7.25;5.95;;;32.40;42.90;;;;;;4916388;29;20215;-69
2022/04/13 14:17:48;;;;;;;6.97;5.00;;;32.20;42.10;;;;;;4916217;29;20191;-69
2022/04/13 14:20:16;;;;;;;5.60;4.80;;;31.90;42.30;;;;;;4916042;29;20529;-69
2022/04/13 14:22:44;;;;;;;7.50;6.75;;;31.70;42.80;;;;;;4916036;29;20655;-68
2022/04/13 14:25:11;;;;;;;7.35;6.55;;;32.10;44.30;;;;;;4916205;29;20411;-69
2022/04/13 14:27:38;;;;;;;10.82;6.85;;;32.30;42.80;;;;;;4915988;29;20623;-69
2022/04/13 14:30:12;;;;;;;7.63;6.40;;;31.90;42.80;;;;;;4915945;29;20190;-69
2022/04/13 14:32:39;;;;;;;7.68;6.88;;;31.90;44.80;;;;;;4915740;29;20770;-69
2022/04/13 14:35:07;;;;;;;7.07;6.05;;;32.20;43.30;;;;;;4915715;29;20198;-69
2022/04/13 14:37:37;;;;;;;7.65;5.18;;;32.70;43.60;;;;;;4915480;29;20183;-69
2022/04/13 14:40:05;;;;;;;6.32;4.78;;;32.70;41.40;;;;;;4916029;29;20225;-68
2022/04/13 14:42:31;;;;;;;4.63;4.22;;;32.50;42.90;;;;;;4915826;29;20191;-69
2022/04/13 14:44:57;;;;;;;5.13;4.70;;;33.00;43.00;;;;;;4914456;29;20679;-69
2022/04/13 14:47:23;;;;;;;6.82;4.70;;;33.60;42.50;;;;;;4915659;29;20198;-69
2022/04/13 14:49:49;;;;;;;6.38;4.95;;;33.30;41.50;;;;;;4915766;29;20195;-68
2022/04/13 14:52:14;;;;;;;5.70;4.88;;;32.90;42.10;;;;;;4915285;29;20675;-67
2022/04/13 14:54:41;;;;;;;6.40;4.93;;;32.60;41.70;;;;;;4915927;29;20234;-68
2022/04/13 14:57:07;;;;;;;7.22;4.53;;;32.40;42.10;;;;;;4914931;29;20187;-69
2022/04/13 14:59:33;;;;;;;8.30;4.53;;;32.40;43.00;;;;;;4915552;29;20655;-69
2022/04/13 15:01:59;;;;;;;8.05;5.07;;;32.10;42.80;;;;;;4915483;29;20213;-67
2022/04/13 15:04:24;;;;;;;7.82;5.82;;;31.80;43.40;;;;;;4915466;29;20232;-70
2022/04/13 15:06:53;;;;;;;6.13;5.32;;;31.40;43.50;;;;;;4915188;29;20191;-68
2022/04/13 15:09:19;;;;;;;7.25;5.88;;;31.50;43.60;;;;;;4915606;29;20198;-68
2022/04/13 15:11:45;;;;;;;7.93;7.13;;;32.10;42.90;;;;;;4914055;29;20215;-69
2022/04/13 15:14:11;;;;;;;10.18;5.78;;;32.90;41.80;;;;;;4938950;23;20221;-67
2022/04/13 15:16:38;;;;;;;6.78;6.07;;;32.40;42.30;;;;;;4968232;28;20277;-67
2022/04/13 15:19:07;;;;;;;8.70;4.78;;;32.80;41.40;;;;;;4952529;28;20189;-68
2022/04/13 15:21:33;;;;;;;7.93;4.43;;;33.10;40.80;;;;;;4953246;28;20182;-69
2022/04/13 15:23:59;;;;;;;4.50;4.07;;;33.50;40.50;;;;;;4952851;28;20189;-68
2022/04/13 15:26:25;;;;;;;7.80;4.22;;;33.50;39.50;;;;;;4952898;28;20191;-67
2022/04/13 15:28:52;;;;;;;7.13;3.88;;;33.50;40.40;;;;;;4952429;29;20297;-68
2022/04/13 15:31:17;;;;;;;7.68;3.78;;;33.80;39.30;;;;;;4952890;28;20308;-69
2022/04/13 15:33:45;;;;;;;6.80;3.38;;;34.00;40.00;;;;;;4952955;28;20189;-69
2022/04/13 15:36:11;;;;;;;7.55;4.13;;;33.70;38.30;;;;;;4952852;28;20193;-69
2022/04/13 15:38:37;;;;;;;6.43;4.20;;;34.60;37.50;;;;;;4952773;28;20182;-70
2022/04/13 15:41:03;;;;;;;9.23;4.03;;;34.10;37.80;;;;;;4952850;28;20177;-69
2022/04/13 15:43:29;;;;;;;6.03;3.42;;;34.00;38.50;;;;;;4952906;28;20718;-69
2022/04/13 15:45:55;;;;;;;7.55;3.60;;;34.10;37.40;;;;;;4951616;28;20340;-69
2022/04/13 15:48:21;;;;;;;11.93;3.40;;;34.10;37.70;;;;;;4952428;28;20452;-70
2022/04/13 15:50:50;;;;;;;5.72;3.65;;;33.90;38.20;;;;;;4953064;28;20205;-69